sensor_id;sensor_type;location;lat;lon;timestamp;temperature;humidity
3560;DHT22;1794;48.804;9.156;2022-08-01T00:01:30;19.50;1.00
3560;DHT22;1794;48.804;9.156;2022-08-01T00:03:57;19.50;1.00
3560;DHT22;1794;48.804;9.156;2022-08-01T00:06:23;19.40;1.00
3560;DHT22;1794;48.804;9.156;2022-08-01T00:08:51;19.50;1.00
3560;DHT22;1794;48.804;9.156;2022-08-01T00:11:18;19.40;1.00
3560;DHT22;1794;48.804;9.156;2022-08-01T00:13:45;19.50;1.00
3560;DHT22;1794;48.804;9.156;2022-08-01T00:16:12;19.50;1.00
3560;DHT22;1794;48.804;9.156;2022-08-01T00:18:38;19.60;1.00
3560;DHT22;1794;48.804;9.156;2022-08-01T00:21:05;19.80;1.00
3560;DHT22;1794;48.804;9.156;2022-08-01T00:23:32;19.80;1.00
3560;DHT22;1794;48.804;9.156;2022-08-01T00:26:00;19.70;1.00
3560;DHT22;1794;48.804;9.156;2022-08-01T00:28:27;19.70;1.00
3560;DHT22;1794;48.804;9.156;2022-08-01T00:30:54;19.80;1.00
3560;DHT22;1794;48.804;9.156;2022-08-01T00:33:21;19.80;1.00
3560;DHT22;1794;48.804;9.156;2022-08-01T00:35:47;19.80;1.00
3560;DHT22;1794;48.804;9.156;2022-08-01T00:38:14;19.70;1.00
3560;DHT22;1794;48.804;9.156;2022-08-01T00:40:41;19.70;1.00
3560;DHT22;1794;48.804;9.156;2022-08-01T00:43:09;19.60;1.00
3560;DHT22;1794;48.804;9.156;2022-08-01T00:45:36;19.60;1.00
3560;DHT22;1794;48.804;9.156;2022-08-01T00:48:03;19.70;1.00
3560;DHT22;1794;48.804;9.156;2022-08-01T00:50:30;19.70;1.00
3560;DHT22;1794;48.804;9.156;2022-08-01T00:52:58;19.60;1.00
3560;DHT22;1794;48.804;9.156;2022-08-01T00:55:25;19.70;1.00
3560;DHT22;1794;48.804;9.156;2022-08-01T00:57:52;19.70;1.00
3560;DHT22;1794;48.804;9.156;2022-08-01T01:00:21;19.70;1.00
3560;DHT22;1794;48.804;9.156;2022-08-01T01:02:48;19.70;1.00
3560;DHT22;1794;48.804;9.156;2022-08-01T01:05:15;19.60;1.00
3560;DHT22;1794;48.804;9.156;2022-08-01T01:07:48;19.70;1.00
3560;DHT22;1794;48.804;9.156;2022-08-01T01:10:22;19.60;1.00
3560;DHT22;1794;48.804;9.156;2022-08-01T01:12:54;19.70;1.00
3560;DHT22;1794;48.804;9.156;2022-08-01T01:15:30;19.80;1.00
3560;DHT22;1794;48.804;9.156;2022-08-01T01:18:03;19.80;1.00
3560;DHT22;1794;48.804;9.156;2022-08-01T01:20:36;19.90;1.00
3560;DHT22;1794;48.804;9.156;2022-08-01T01:23:21;19.80;1.00
3560;DHT22;1794;48.804;9.156;2022-08-01T01:26:07;19.80;1.00
3560;DHT22;1794;48.804;9.156;2022-08-01T01:28:56;19.90;1.00
3560;DHT22;1794;48.804;9.156;2022-08-01T01:31:26;19.80;1.00
3560;DHT22;1794;48.804;9.156;2022-08-01T01:33:55;19.80;1.00
3560;DHT22;1794;48.804;9.156;2022-08-01T01:36:24;19.80;1.00
3560;DHT22;1794;48.804;9.156;2022-08-01T01:38:53;19.70;1.00
3560;DHT22;1794;48.804;9.156;2022-08-01T01:41:21;19.70;1.00
3560;DHT22;1794;48.804;9.156;2022-08-01T01:43:49;19.70;1.00
3560;DHT22;1794;48.804;9.156;2022-08-01T01:46:22;19.60;1.00
3560;DHT22;1794;48.804;9.156;2022-08-01T01:48:52;19.60;1.00
3560;DHT22;1794;48.804;9.156;2022-08-01T01:51:21;19.60;1.00
3560;DHT22;1794;48.804;9.156;2022-08-01T01:53:49;19.60;1.00
3560;DHT22;1794;48.804;9.156;2022-08-01T01:56:18;19.60;1.00
3560;DHT22;1794;48.804;9.156;2022-08-01T01:58:48;19.70;1.00
3560;DHT22;1794;48.804;9.156;2022-08-01T02:01:20;19.60;1.00
3560;DHT22;1794;48.804;9.156;2022-08-01T02:03:48;19.50;1.00
3560;DHT22;1794;48.804;9.156;2022-08-01T02:06:16;19.50;1.00
3560;DHT22;1794;48.804;9.156;2022-08-01T02:08:44;19.40;1.00
3560;DHT22;1794;48.804;9.156;2022-08-01T02:11:11;19.40;1.00
3560;DHT22;1794;48.804;9.156;2022-08-01T02:13:47;19.30;1.00
3560;DHT22;1794;48.804;9.156;2022-08-01T02:16:15;19.20;1.00
3560;DHT22;1794;48.804;9.156;2022-08-01T02:18:45;19.10;1.00
3560;DHT22;1794;48.804;9.156;2022-08-01T02:21:14;19.10;1.00
3560;DHT22;1794;48.804;9.156;2022-08-01T02:23:43;18.90;1.00
3560;DHT22;1794;48.804;9.156;2022-08-01T02:26:14;18.80;1.00
3560;DHT22;1794;48.804;9.156;2022-08-01T02:28:47;18.80;1.00
3560;DHT22;1794;48.804;9.156;2022-08-01T02:31:17;18.90;1.00
3560;DHT22;1794;48.804;9.156;2022-08-01T02:33:50;18.80;1.00
3560;DHT22;1794;48.804;9.156;2022-08-01T02:36:19;18.70;1.00
3560;DHT22;1794;48.804;9.156;2022-08-01T02:38:47;18.60;1.00
3560;DHT22;1794;48.804;9.156;2022-08-01T02:41:19;18.70;1.00
3560;DHT22;1794;48.804;9.156;2022-08-01T02:43:49;18.60;1.00
3560;DHT22;1794;48.804;9.156;2022-08-01T02:46:21;18.50;1.00
3560;DHT22;1794;48.804;9.156;2022-08-01T02:48:52;18.50;1.00
3560;DHT22;1794;48.804;9.156;2022-08-01T02:51:22;18.50;1.00
3560;DHT22;1794;48.804;9.156;2022-08-01T02:53:50;18.50;1.00
3560;DHT22;1794;48.804;9.156;2022-08-01T02:56:19;18.60;1.00
3560;DHT22;1794;48.804;9.156;2022-08-01T02:58:49;18.50;1.00
3560;DHT22;1794;48.804;9.156;2022-08-01T03:01:18;18.30;22.10
3560;DHT22;1794;48.804;9.156;2022-08-01T03:03:45;18.30;20.80
3560;DHT22;1794;48.804;9.156;2022-08-01T03:06:14;18.30;20.00
3560;DHT22;1794;48.804;9.156;2022-08-01T03:08:42;18.30;27.50
3560;DHT22;1794;48.804;9.156;2022-08-01T03:11:11;18.30;32.50
3560;DHT22;1794;48.804;9.156;2022-08-01T03:13:40;18.40;36.60
3560;DHT22;1794;48.804;9.156;2022-08-01T03:16:09;18.30;41.00
3560;DHT22;1794;48.804;9.156;2022-08-01T03:18:39;18.40;24.10
3560;DHT22;1794;48.804;9.156;2022-08-01T03:21:08;18.60;12.90
3560;DHT22;1794;48.804;9.156;2022-08-01T03:23:37;18.70;10.00
3560;DHT22;1794;48.804;9.156;2022-08-01T03:26:05;18.70;9.20
3560;DHT22;1794;48.804;9.156;2022-08-01T03:28:32;18.80;1.30
3560;DHT22;1794;48.804;9.156;2022-08-01T03:31:00;18.80;1.60
3560;DHT22;1794;48.804;9.156;2022-08-01T03:33:28;18.80;1.20
3560;DHT22;1794;48.804;9.156;2022-08-01T03:35:55;18.70;15.30
3560;DHT22;1794;48.804;9.156;2022-08-01T03:38:25;18.70;23.50
3560;DHT22;1794;48.804;9.156;2022-08-01T03:40:58;18.60;21.50
3560;DHT22;1794;48.804;9.156;2022-08-01T03:43:31;18.60;22.80
3560;DHT22;1794;48.804;9.156;2022-08-01T03:46:04;18.50;31.40
3560;DHT22;1794;48.804;9.156;2022-08-01T03:48:37;18.40;36.30
3560;DHT22;1794;48.804;9.156;2022-08-01T03:51:05;18.40;41.80
3560;DHT22;1794;48.804;9.156;2022-08-01T03:53:33;18.30;48.80
3560;DHT22;1794;48.804;9.156;2022-08-01T03:56:03;18.30;50.90
3560;DHT22;1794;48.804;9.156;2022-08-01T03:58:34;18.10;62.20
3560;DHT22;1794;48.804;9.156;2022-08-01T04:01:01;18.00;87.00
3560;DHT22;1794;48.804;9.156;2022-08-01T04:03:28;18.10;67.20
3560;DHT22;1794;48.804;9.156;2022-08-01T04:05:55;18.00;74.80
3560;DHT22;1794;48.804;9.156;2022-08-01T04:08:22;17.90;80.20
3560;DHT22;1794;48.804;9.156;2022-08-01T04:10:48;17.80;96.80
3560;DHT22;1794;48.804;9.156;2022-08-01T04:13:16;17.70;99.90
3560;DHT22;1794;48.804;9.156;2022-08-01T04:15:43;17.70;99.90
3560;DHT22;1794;48.804;9.156;2022-08-01T04:18:10;17.70;99.90
3560;DHT22;1794;48.804;9.156;2022-08-01T04:20:36;17.80;96.50
3560;DHT22;1794;48.804;9.156;2022-08-01T04:23:03;17.70;99.90
3560;DHT22;1794;48.804;9.156;2022-08-01T04:25:33;17.70;99.90
3560;DHT22;1794;48.804;9.156;2022-08-01T04:28:02;17.80;99.40
3560;DHT22;1794;48.804;9.156;2022-08-01T04:30:35;17.80;99.90
3560;DHT22;1794;48.804;9.156;2022-08-01T04:33:04;17.70;99.90
3560;DHT22;1794;48.804;9.156;2022-08-01T04:35:32;17.70;99.90
3560;DHT22;1794;48.804;9.156;2022-08-01T04:38:01;17.70;99.90
3560;DHT22;1794;48.804;9.156;2022-08-01T04:40:29;17.90;99.10
3560;DHT22;1794;48.804;9.156;2022-08-01T04:42:56;17.90;99.90
3560;DHT22;1794;48.804;9.156;2022-08-01T04:45:23;17.90;99.90
3560;DHT22;1794;48.804;9.156;2022-08-01T04:47:52;17.80;99.90
3560;DHT22;1794;48.804;9.156;2022-08-01T04:50:19;17.70;99.90
3560;DHT22;1794;48.804;9.156;2022-08-01T04:52:47;17.70;99.90
3560;DHT22;1794;48.804;9.156;2022-08-01T04:55:14;17.70;99.90
3560;DHT22;1794;48.804;9.156;2022-08-01T04:57:43;17.80;99.90
3560;DHT22;1794;48.804;9.156;2022-08-01T05:00:12;17.80;99.90
3560;DHT22;1794;48.804;9.156;2022-08-01T05:02:38;17.80;99.90
3560;DHT22;1794;48.804;9.156;2022-08-01T05:05:07;18.00;99.90
3560;DHT22;1794;48.804;9.156;2022-08-01T05:07:36;18.10;99.90
3560;DHT22;1794;48.804;9.156;2022-08-01T05:10:03;18.10;99.90
3560;DHT22;1794;48.804;9.156;2022-08-01T05:12:30;18.30;99.90
3560;DHT22;1794;48.804;9.156;2022-08-01T05:14:58;18.40;99.90
3560;DHT22;1794;48.804;9.156;2022-08-01T05:17:24;18.80;79.70
3560;DHT22;1794;48.804;9.156;2022-08-01T05:19:51;19.00;70.30
3560;DHT22;1794;48.804;9.156;2022-08-01T05:22:19;19.20;50.70
3560;DHT22;1794;48.804;9.156;2022-08-01T05:24:46;19.60;51.10
3560;DHT22;1794;48.804;9.156;2022-08-01T05:27:13;20.20;1.00
3560;DHT22;1794;48.804;9.156;2022-08-01T05:29:40;20.50;1.00
3560;DHT22;1794;48.804;9.156;2022-08-01T05:32:07;21.00;1.00
3560;DHT22;1794;48.804;9.156;2022-08-01T05:34:34;21.70;1.00
3560;DHT22;1794;48.804;9.156;2022-08-01T05:37:01;22.00;1.00
3560;DHT22;1794;48.804;9.156;2022-08-01T05:39:30;22.60;1.00
3560;DHT22;1794;48.804;9.156;2022-08-01T05:41:56;23.30;1.00
3560;DHT22;1794;48.804;9.156;2022-08-01T05:44:23;23.20;1.00
3560;DHT22;1794;48.804;9.156;2022-08-01T05:46:50;24.00;1.00
3560;DHT22;1794;48.804;9.156;2022-08-01T05:49:17;24.50;1.00
3560;DHT22;1794;48.804;9.156;2022-08-01T05:51:44;25.10;99.90
3560;DHT22;1794;48.804;9.156;2022-08-01T05:54:10;25.10;99.90
3560;DHT22;1794;48.804;9.156;2022-08-01T05:56:39;24.90;99.90
3560;DHT22;1794;48.804;9.156;2022-08-01T05:59:05;24.60;99.90
3560;DHT22;1794;48.804;9.156;2022-08-01T06:01:32;24.50;1.00
3560;DHT22;1794;48.804;9.156;2022-08-01T06:03:59;24.10;1.00
3560;DHT22;1794;48.804;9.156;2022-08-01T06:06:26;24.10;1.00
3560;DHT22;1794;48.804;9.156;2022-08-01T06:08:53;23.80;1.00
3560;DHT22;1794;48.804;9.156;2022-08-01T06:11:20;23.90;1.00
3560;DHT22;1794;48.804;9.156;2022-08-01T06:13:48;24.50;1.00
3560;DHT22;1794;48.804;9.156;2022-08-01T06:16:15;24.80;1.00
3560;DHT22;1794;48.804;9.156;2022-08-01T06:18:42;25.10;99.90
3560;DHT22;1794;48.804;9.156;2022-08-01T06:21:08;25.70;99.90
3560;DHT22;1794;48.804;9.156;2022-08-01T06:23:35;25.80;99.90
3560;DHT22;1794;48.804;9.156;2022-08-01T06:26:02;25.80;99.90
3560;DHT22;1794;48.804;9.156;2022-08-01T06:28:29;25.80;99.90
3560;DHT22;1794;48.804;9.156;2022-08-01T06:30:57;25.90;99.90
3560;DHT22;1794;48.804;9.156;2022-08-01T06:33:25;25.70;99.90
3560;DHT22;1794;48.804;9.156;2022-08-01T06:35:51;26.20;99.90
3560;DHT22;1794;48.804;9.156;2022-08-01T06:38:18;26.50;88.30
3560;DHT22;1794;48.804;9.156;2022-08-01T06:40:45;27.50;1.00
3560;DHT22;1794;48.804;9.156;2022-08-01T06:43:12;28.00;99.90
3560;DHT22;1794;48.804;9.156;2022-08-01T06:45:39;28.10;1.00
3560;DHT22;1794;48.804;9.156;2022-08-01T06:48:07;28.10;16.80
3560;DHT22;1794;48.804;9.156;2022-08-01T06:50:34;27.60;99.90
3560;DHT22;1794;48.804;9.156;2022-08-01T06:53:02;27.10;1.00
3560;DHT22;1794;48.804;9.156;2022-08-01T06:55:29;27.50;1.00
3560;DHT22;1794;48.804;9.156;2022-08-01T06:57:56;27.80;99.90
3560;DHT22;1794;48.804;9.156;2022-08-01T07:00:24;28.20;1.00
3560;DHT22;1794;48.804;9.156;2022-08-01T07:02:52;28.50;1.00
3560;DHT22;1794;48.804;9.156;2022-08-01T07:05:21;28.50;99.90
3560;DHT22;1794;48.804;9.156;2022-08-01T07:07:48;28.40;1.00
3560;DHT22;1794;48.804;9.156;2022-08-01T07:10:16;28.10;1.00
3560;DHT22;1794;48.804;9.156;2022-08-01T07:12:42;27.70;1.00
3560;DHT22;1794;48.804;9.156;2022-08-01T07:15:10;27.60;1.00
3560;DHT22;1794;48.804;9.156;2022-08-01T07:17:38;27.80;1.00
3560;DHT22;1794;48.804;9.156;2022-08-01T07:20:07;27.60;99.90
3560;DHT22;1794;48.804;9.156;2022-08-01T07:22:35;26.90;99.90
3560;DHT22;1794;48.804;9.156;2022-08-01T07:25:04;27.00;1.00
3560;DHT22;1794;48.804;9.156;2022-08-01T07:27:31;27.50;99.90
3560;DHT22;1794;48.804;9.156;2022-08-01T07:29:58;28.50;1.00
3560;DHT22;1794;48.804;9.156;2022-08-01T07:32:25;28.80;99.90
3560;DHT22;1794;48.804;9.156;2022-08-01T07:34:52;29.00;99.90
3560;DHT22;1794;48.804;9.156;2022-08-01T07:37:19;29.50;18.10
3560;DHT22;1794;48.804;9.156;2022-08-01T07:39:47;29.00;95.40
3560;DHT22;1794;48.804;9.156;2022-08-01T07:42:14;28.60;99.90
3560;DHT22;1794;48.804;9.156;2022-08-01T07:44:40;28.60;99.90
3560;DHT22;1794;48.804;9.156;2022-08-01T07:47:07;28.90;99.90
3560;DHT22;1794;48.804;9.156;2022-08-01T07:49:34;29.20;1.00
3560;DHT22;1794;48.804;9.156;2022-08-01T07:52:01;29.50;1.00
3560;DHT22;1794;48.804;9.156;2022-08-01T07:54:28;29.70;1.00
3560;DHT22;1794;48.804;9.156;2022-08-01T07:56:56;30.40;1.00
3560;DHT22;1794;48.804;9.156;2022-08-01T07:59:23;30.40;1.00
3560;DHT22;1794;48.804;9.156;2022-08-01T08:01:49;30.30;1.00
3560;DHT22;1794;48.804;9.156;2022-08-01T08:04:16;30.50;1.00
3560;DHT22;1794;48.804;9.156;2022-08-01T08:06:43;30.80;1.00
3560;DHT22;1794;48.804;9.156;2022-08-01T08:09:13;30.20;1.00
3560;DHT22;1794;48.804;9.156;2022-08-01T08:11:41;29.50;1.00
3560;DHT22;1794;48.804;9.156;2022-08-01T08:14:09;29.00;1.00
3560;DHT22;1794;48.804;9.156;2022-08-01T08:16:35;29.40;1.00
3560;DHT22;1794;48.804;9.156;2022-08-01T08:19:02;30.30;1.00
3560;DHT22;1794;48.804;9.156;2022-08-01T08:21:29;30.20;1.00
3560;DHT22;1794;48.804;9.156;2022-08-01T08:23:56;30.50;1.00
3560;DHT22;1794;48.804;9.156;2022-08-01T08:26:40;31.00;1.00
3560;DHT22;1794;48.804;9.156;2022-08-01T08:29:09;31.10;1.00
3560;DHT22;1794;48.804;9.156;2022-08-01T08:31:35;30.60;1.00
3560;DHT22;1794;48.804;9.156;2022-08-01T08:34:02;29.90;1.00
3560;DHT22;1794;48.804;9.156;2022-08-01T08:36:29;30.40;1.00
3560;DHT22;1794;48.804;9.156;2022-08-01T08:38:55;31.30;1.00
3560;DHT22;1794;48.804;9.156;2022-08-01T08:41:22;32.10;1.00
3560;DHT22;1794;48.804;9.156;2022-08-01T08:43:49;33.20;1.00
3560;DHT22;1794;48.804;9.156;2022-08-01T08:46:17;33.90;1.00
3560;DHT22;1794;48.804;9.156;2022-08-01T08:48:45;31.80;1.00
3560;DHT22;1794;48.804;9.156;2022-08-01T08:51:12;28.90;1.00
3560;DHT22;1794;48.804;9.156;2022-08-01T08:53:40;28.80;1.00
3560;DHT22;1794;48.804;9.156;2022-08-01T08:56:11;30.00;1.00
3560;DHT22;1794;48.804;9.156;2022-08-01T08:58:38;29.40;1.00
3560;DHT22;1794;48.804;9.156;2022-08-01T09:01:07;29.10;1.00
3560;DHT22;1794;48.804;9.156;2022-08-01T09:03:37;29.60;1.00
3560;DHT22;1794;48.804;9.156;2022-08-01T09:06:04;30.40;1.00
3560;DHT22;1794;48.804;9.156;2022-08-01T09:08:30;30.50;1.00
3560;DHT22;1794;48.804;9.156;2022-08-01T09:10:58;30.10;1.00
3560;DHT22;1794;48.804;9.156;2022-08-01T09:13:25;30.80;1.00
3560;DHT22;1794;48.804;9.156;2022-08-01T09:15:53;30.80;1.00
3560;DHT22;1794;48.804;9.156;2022-08-01T09:18:30;30.60;1.00
3560;DHT22;1794;48.804;9.156;2022-08-01T09:21:13;30.40;1.00
3560;DHT22;1794;48.804;9.156;2022-08-01T09:23:43;31.20;1.00
3560;DHT22;1794;48.804;9.156;2022-08-01T09:26:11;31.30;1.00
3560;DHT22;1794;48.804;9.156;2022-08-01T09:28:39;30.40;1.00
3560;DHT22;1794;48.804;9.156;2022-08-01T09:31:08;29.70;1.00
3560;DHT22;1794;48.804;9.156;2022-08-01T09:33:49;29.40;1.00
3560;DHT22;1794;48.804;9.156;2022-08-01T09:36:18;29.10;99.50
3560;DHT22;1794;48.804;9.156;2022-08-01T09:38:45;28.90;6.30
3560;DHT22;1794;48.804;9.156;2022-08-01T09:41:12;29.50;11.00
3560;DHT22;1794;48.804;9.156;2022-08-01T09:43:38;29.80;1.00
3560;DHT22;1794;48.804;9.156;2022-08-01T09:46:09;29.80;1.00
3560;DHT22;1794;48.804;9.156;2022-08-01T09:48:37;29.60;1.00
3560;DHT22;1794;48.804;9.156;2022-08-01T09:51:05;31.10;1.00
3560;DHT22;1794;48.804;9.156;2022-08-01T09:53:45;31.90;1.00
3560;DHT22;1794;48.804;9.156;2022-08-01T09:56:13;31.50;1.00
3560;DHT22;1794;48.804;9.156;2022-08-01T09:58:50;31.50;1.00
3560;DHT22;1794;48.804;9.156;2022-08-01T10:01:20;31.60;1.00
3560;DHT22;1794;48.804;9.156;2022-08-01T10:03:52;31.20;1.00
3560;DHT22;1794;48.804;9.156;2022-08-01T10:06:29;31.60;1.00
3560;DHT22;1794;48.804;9.156;2022-08-01T10:08:57;31.40;1.00
3560;DHT22;1794;48.804;9.156;2022-08-01T10:11:24;33.00;1.00
3560;DHT22;1794;48.804;9.156;2022-08-01T10:13:51;34.90;1.00
3560;DHT22;1794;48.804;9.156;2022-08-01T10:16:19;36.10;1.00
3560;DHT22;1794;48.804;9.156;2022-08-01T10:18:46;36.50;1.00
3560;DHT22;1794;48.804;9.156;2022-08-01T10:21:13;36.10;1.00
3560;DHT22;1794;48.804;9.156;2022-08-01T10:23:41;33.50;1.00
3560;DHT22;1794;48.804;9.156;2022-08-01T10:26:10;33.00;1.00
3560;DHT22;1794;48.804;9.156;2022-08-01T10:28:38;35.40;1.00
3560;DHT22;1794;48.804;9.156;2022-08-01T10:31:07;35.70;1.00
3560;DHT22;1794;48.804;9.156;2022-08-01T10:33:34;34.70;1.00
3560;DHT22;1794;48.804;9.156;2022-08-01T10:36:01;33.40;1.00
3560;DHT22;1794;48.804;9.156;2022-08-01T10:38:28;33.80;1.00
3560;DHT22;1794;48.804;9.156;2022-08-01T10:40:57;33.20;1.00
3560;DHT22;1794;48.804;9.156;2022-08-01T10:43:26;32.10;1.00
3560;DHT22;1794;48.804;9.156;2022-08-01T10:45:54;32.20;1.00
3560;DHT22;1794;48.804;9.156;2022-08-01T10:48:26;31.90;1.00
3560;DHT22;1794;48.804;9.156;2022-08-01T10:50:58;30.90;1.00
3560;DHT22;1794;48.804;9.156;2022-08-01T10:53:27;30.30;1.00
3560;DHT22;1794;48.804;9.156;2022-08-01T10:55:59;29.60;1.00
3560;DHT22;1794;48.804;9.156;2022-08-01T10:58:29;30.10;1.00
3560;DHT22;1794;48.804;9.156;2022-08-01T11:01:20;32.40;1.00
3560;DHT22;1794;48.804;9.156;2022-08-01T11:04:01;32.70;1.00
3560;DHT22;1794;48.804;9.156;2022-08-01T11:06:40;32.10;1.00
3560;DHT22;1794;48.804;9.156;2022-08-01T11:09:20;31.50;1.00
3560;DHT22;1794;48.804;9.156;2022-08-01T11:12:01;30.90;1.00
3560;DHT22;1794;48.804;9.156;2022-08-01T11:14:31;30.40;1.00
3560;DHT22;1794;48.804;9.156;2022-08-01T11:17:32;32.70;1.00
3560;DHT22;1794;48.804;9.156;2022-08-01T11:20:07;33.90;1.00
3560;DHT22;1794;48.804;9.156;2022-08-01T11:28:34;35.70;1.00
3560;DHT22;1794;48.804;9.156;2022-08-01T11:31:27;36.70;1.00
3560;DHT22;1794;48.804;9.156;2022-08-01T11:33:55;37.80;1.00
3560;DHT22;1794;48.804;9.156;2022-08-01T11:36:22;37.80;1.00
3560;DHT22;1794;48.804;9.156;2022-08-01T11:39:15;37.80;1.00
3560;DHT22;1794;48.804;9.156;2022-08-01T11:41:43;37.00;1.00
3560;DHT22;1794;48.804;9.156;2022-08-01T11:44:11;37.40;1.00
3560;DHT22;1794;48.804;9.156;2022-08-01T11:47:03;37.90;1.00
3560;DHT22;1794;48.804;9.156;2022-08-01T11:49:47;37.70;1.00
3560;DHT22;1794;48.804;9.156;2022-08-01T11:52:18;37.70;1.00
3560;DHT22;1794;48.804;9.156;2022-08-01T11:54:47;37.70;1.00
3560;DHT22;1794;48.804;9.156;2022-08-01T11:57:15;38.10;1.00
3560;DHT22;1794;48.804;9.156;2022-08-01T11:59:46;38.00;1.00
3560;DHT22;1794;48.804;9.156;2022-08-01T12:02:20;38.40;1.00
3560;DHT22;1794;48.804;9.156;2022-08-01T12:04:49;38.70;1.00
3560;DHT22;1794;48.804;9.156;2022-08-01T12:07:17;37.80;1.00
3560;DHT22;1794;48.804;9.156;2022-08-01T12:09:44;36.80;1.00
3560;DHT22;1794;48.804;9.156;2022-08-01T12:12:16;36.10;1.00
3560;DHT22;1794;48.804;9.156;2022-08-01T12:14:45;34.60;1.00
3560;DHT22;1794;48.804;9.156;2022-08-01T12:17:12;35.10;1.00
3560;DHT22;1794;48.804;9.156;2022-08-01T12:19:40;36.50;1.00
3560;DHT22;1794;48.804;9.156;2022-08-01T12:22:12;35.10;1.00
3560;DHT22;1794;48.804;9.156;2022-08-01T12:24:40;36.10;1.00
3560;DHT22;1794;48.804;9.156;2022-08-01T12:27:08;35.40;1.00
3560;DHT22;1794;48.804;9.156;2022-08-01T12:29:37;33.80;1.00
3560;DHT22;1794;48.804;9.156;2022-08-01T12:32:05;33.10;1.00
3560;DHT22;1794;48.804;9.156;2022-08-01T12:34:48;33.20;1.00
3560;DHT22;1794;48.804;9.156;2022-08-01T12:37:14;33.30;1.00
3560;DHT22;1794;48.804;9.156;2022-08-01T12:39:42;32.80;1.00
3560;DHT22;1794;48.804;9.156;2022-08-01T12:42:09;33.20;1.00
3560;DHT22;1794;48.804;9.156;2022-08-01T12:44:37;34.70;1.00
3560;DHT22;1794;48.804;9.156;2022-08-01T12:47:05;34.70;1.00
3560;DHT22;1794;48.804;9.156;2022-08-01T12:49:33;33.90;1.00
3560;DHT22;1794;48.804;9.156;2022-08-01T12:52:03;33.00;1.00
3560;DHT22;1794;48.804;9.156;2022-08-01T12:54:30;31.60;1.00
3560;DHT22;1794;48.804;9.156;2022-08-01T12:56:56;31.20;1.00
3560;DHT22;1794;48.804;9.156;2022-08-01T12:59:25;30.80;1.00
3560;DHT22;1794;48.804;9.156;2022-08-01T13:01:52;30.30;1.00
3560;DHT22;1794;48.804;9.156;2022-08-01T13:04:19;30.60;1.00
3560;DHT22;1794;48.804;9.156;2022-08-01T13:06:46;30.50;1.00
3560;DHT22;1794;48.804;9.156;2022-08-01T13:09:15;30.60;1.00
3560;DHT22;1794;48.804;9.156;2022-08-01T13:11:41;30.60;1.00
3560;DHT22;1794;48.804;9.156;2022-08-01T13:14:09;30.70;1.00
3560;DHT22;1794;48.804;9.156;2022-08-01T13:16:46;30.60;1.00
3560;DHT22;1794;48.804;9.156;2022-08-01T13:19:13;31.00;1.00
3560;DHT22;1794;48.804;9.156;2022-08-01T13:21:53;31.00;1.00
3560;DHT22;1794;48.804;9.156;2022-08-01T13:24:25;31.00;1.00
3560;DHT22;1794;48.804;9.156;2022-08-01T13:26:54;30.80;1.00
3560;DHT22;1794;48.804;9.156;2022-08-01T13:29:30;30.70;1.00
3560;DHT22;1794;48.804;9.156;2022-08-01T13:31:58;30.90;1.00
3560;DHT22;1794;48.804;9.156;2022-08-01T13:34:31;30.70;1.00
3560;DHT22;1794;48.804;9.156;2022-08-01T13:36:58;30.70;1.00
3560;DHT22;1794;48.804;9.156;2022-08-01T13:39:28;30.30;1.00
3560;DHT22;1794;48.804;9.156;2022-08-01T13:42:08;29.50;1.00
3560;DHT22;1794;48.804;9.156;2022-08-01T13:44:35;28.90;1.00
3560;DHT22;1794;48.804;9.156;2022-08-01T13:47:02;29.20;1.00
3560;DHT22;1794;48.804;9.156;2022-08-01T13:49:29;29.90;1.00
3560;DHT22;1794;48.804;9.156;2022-08-01T13:51:56;30.50;1.00
3560;DHT22;1794;48.804;9.156;2022-08-01T13:54:23;30.80;1.00
3560;DHT22;1794;48.804;9.156;2022-08-01T13:56:51;31.00;1.00
3560;DHT22;1794;48.804;9.156;2022-08-01T13:59:19;30.90;1.00
3560;DHT22;1794;48.804;9.156;2022-08-01T14:01:45;31.20;1.00
3560;DHT22;1794;48.804;9.156;2022-08-01T14:04:12;31.40;1.00
3560;DHT22;1794;48.804;9.156;2022-08-01T14:06:39;31.20;1.00
3560;DHT22;1794;48.804;9.156;2022-08-01T14:09:06;31.10;1.00
3560;DHT22;1794;48.804;9.156;2022-08-01T14:11:34;30.60;1.00
3560;DHT22;1794;48.804;9.156;2022-08-01T14:14:02;30.90;1.00
3560;DHT22;1794;48.804;9.156;2022-08-01T14:16:29;31.20;1.00
3560;DHT22;1794;48.804;9.156;2022-08-01T14:18:55;31.20;1.00
3560;DHT22;1794;48.804;9.156;2022-08-01T14:21:22;31.50;1.00
3560;DHT22;1794;48.804;9.156;2022-08-01T14:23:49;31.20;1.00
3560;DHT22;1794;48.804;9.156;2022-08-01T14:26:15;31.20;1.00
3560;DHT22;1794;48.804;9.156;2022-08-01T14:28:42;30.60;1.00
3560;DHT22;1794;48.804;9.156;2022-08-01T14:31:10;30.60;1.00
3560;DHT22;1794;48.804;9.156;2022-08-01T14:33:37;30.60;1.00
3560;DHT22;1794;48.804;9.156;2022-08-01T14:36:04;30.40;1.00
3560;DHT22;1794;48.804;9.156;2022-08-01T14:38:31;30.30;1.00
3560;DHT22;1794;48.804;9.156;2022-08-01T14:40:58;30.40;1.00
3560;DHT22;1794;48.804;9.156;2022-08-01T14:43:24;30.60;1.00
3560;DHT22;1794;48.804;9.156;2022-08-01T14:45:52;30.50;1.00
3560;DHT22;1794;48.804;9.156;2022-08-01T14:48:21;30.80;1.00
3560;DHT22;1794;48.804;9.156;2022-08-01T14:50:47;30.90;1.00
3560;DHT22;1794;48.804;9.156;2022-08-01T14:53:15;30.90;1.00
3560;DHT22;1794;48.804;9.156;2022-08-01T14:55:43;30.50;1.00
3560;DHT22;1794;48.804;9.156;2022-08-01T14:58:09;30.20;1.00
3560;DHT22;1794;48.804;9.156;2022-08-01T15:00:36;30.20;1.00
3560;DHT22;1794;48.804;9.156;2022-08-01T15:03:03;30.40;1.00
3560;DHT22;1794;48.804;9.156;2022-08-01T15:05:31;30.30;1.00
3560;DHT22;1794;48.804;9.156;2022-08-01T15:07:58;29.70;1.00
3560;DHT22;1794;48.804;9.156;2022-08-01T15:10:25;29.40;1.00
3560;DHT22;1794;48.804;9.156;2022-08-01T15:12:52;29.70;1.00
3560;DHT22;1794;48.804;9.156;2022-08-01T15:15:19;29.90;1.00
3560;DHT22;1794;48.804;9.156;2022-08-01T15:17:46;29.90;1.00
3560;DHT22;1794;48.804;9.156;2022-08-01T15:20:13;30.00;1.00
3560;DHT22;1794;48.804;9.156;2022-08-01T15:22:42;30.10;1.00
3560;DHT22;1794;48.804;9.156;2022-08-01T15:25:09;30.10;1.00
3560;DHT22;1794;48.804;9.156;2022-08-01T15:27:36;30.10;1.00
3560;DHT22;1794;48.804;9.156;2022-08-01T15:32:43;29.50;1.00
3560;DHT22;1794;48.804;9.156;2022-08-01T15:35:11;29.30;99.90
3560;DHT22;1794;48.804;9.156;2022-08-01T15:37:37;29.40;99.90
3560;DHT22;1794;48.804;9.156;2022-08-01T15:40:05;29.60;99.90
3560;DHT22;1794;48.804;9.156;2022-08-01T15:42:32;29.50;99.90
3560;DHT22;1794;48.804;9.156;2022-08-01T15:45:00;29.30;99.90
3560;DHT22;1794;48.804;9.156;2022-08-01T15:47:26;29.60;99.90
3560;DHT22;1794;48.804;9.156;2022-08-01T15:49:54;29.40;99.90
3560;DHT22;1794;48.804;9.156;2022-08-01T15:52:25;29.20;99.90
3560;DHT22;1794;48.804;9.156;2022-08-01T15:54:52;29.30;99.90
3560;DHT22;1794;48.804;9.156;2022-08-01T15:57:19;29.10;99.90
3560;DHT22;1794;48.804;9.156;2022-08-01T15:59:45;29.00;99.90
3560;DHT22;1794;48.804;9.156;2022-08-01T16:02:12;29.10;99.90
3560;DHT22;1794;48.804;9.156;2022-08-01T16:04:39;28.90;99.90
3560;DHT22;1794;48.804;9.156;2022-08-01T16:07:07;29.20;99.90
3560;DHT22;1794;48.804;9.156;2022-08-01T16:09:34;29.20;99.90
3560;DHT22;1794;48.804;9.156;2022-08-01T16:12:01;29.00;99.90
3560;DHT22;1794;48.804;9.156;2022-08-01T16:14:28;29.10;99.90
3560;DHT22;1794;48.804;9.156;2022-08-01T16:16:54;28.90;99.90
3560;DHT22;1794;48.804;9.156;2022-08-01T16:19:21;28.80;99.90
3560;DHT22;1794;48.804;9.156;2022-08-01T16:21:48;28.70;99.90
3560;DHT22;1794;48.804;9.156;2022-08-01T16:24:17;28.70;99.90
3560;DHT22;1794;48.804;9.156;2022-08-01T16:26:44;28.90;99.90
3560;DHT22;1794;48.804;9.156;2022-08-01T16:29:11;29.00;99.90
3560;DHT22;1794;48.804;9.156;2022-08-01T16:31:37;28.30;99.90
3560;DHT22;1794;48.804;9.156;2022-08-01T16:34:04;28.40;99.90